aviador You're here:

PFNO Decoded Metar

in
Report Time2017-08-23 01:56:00
UTC Time2017-08-23 02:14:01
Flight Rules mvfr MVFR
Wind250° at 16 kt
W.Decomp.*RWY 24: 15.8 kt HW 2.8 kt RCW
W.Rank250° ranks 10
Current wind is above 250° avg. (7.0)
Visibility9999 m
Phenomena:N/A
Clouds:Broken 015 Hf
Broken 019 Hf
Overcast 026 Hf
Expected CloudBase > 800 ft AGL from Temp-Dew spread
Ceiling1,500 ft
Temp08°C
Dew Point06°C (87% RH)
AAT1.3°C
QNH1006 hPa
Raw Report
PFNO 230156Z AUTO 25016KT 10SM BKN015 BKN019 OVC026 08/06 A2970
RMK AO2 RAB02E16B35E51 SLP058 P0000 T00780056=

Extra information for PFNO:More info

Social comments